sensor_id;sensor_type;location;lat;lon;timestamp;pressure;altitude;pressure_sealevel;temperature;humidity
56042;BME280;48756;41.374;2.066;2022-10-10T00:02:07;101149.03;;;20.85;94.90
56042;BME280;48756;41.374;2.066;2022-10-10T00:04:32;101147.19;;;20.87;96.24
56042;BME280;48756;41.374;2.066;2022-10-10T00:06:58;101152.81;;;20.59;94.68
56042;BME280;48756;41.374;2.066;2022-10-10T00:09:23;101155.66;;;20.34;94.32
56042;BME280;48756;41.374;2.066;2022-10-10T00:11:49;101152.81;;;20.18;95.06
56042;BME280;48756;41.374;2.066;2022-10-10T00:14:14;101153.94;;;19.92;96.11
56042;BME280;48756;41.374;2.066;2022-10-10T00:16:39;101154.59;;;19.97;95.66
56042;BME280;48756;41.374;2.066;2022-10-10T00:19:04;101146.78;;;19.94;96.06
56042;BME280;48756;41.374;2.066;2022-10-10T00:21:30;101149.75;;;20.07;96.34
56042;BME280;48756;41.374;2.066;2022-10-10T00:23:55;101143.59;;;20.06;95.77
56042;BME280;48756;41.374;2.066;2022-10-10T00:26:20;101148.53;;;20.15;95.85
56042;BME280;48756;41.374;2.066;2022-10-10T00:28:46;101143.81;;;20.22;95.99
56042;BME280;48756;41.374;2.066;2022-10-10T00:31:12;101132.75;;;20.33;95.62
56042;BME280;48756;41.374;2.066;2022-10-10T00:33:37;101139.19;;;20.27;95.37
56042;BME280;48756;41.374;2.066;2022-10-10T00:36:03;101148.19;;;20.23;95.15
56042;BME280;48756;41.374;2.066;2022-10-10T00:38:31;101145.28;;;20.29;94.61
56042;BME280;48756;41.374;2.066;2022-10-10T00:40:57;101143.28;;;20.34;94.90
56042;BME280;48756;41.374;2.066;2022-10-10T00:43:23;101144.59;;;20.46;95.78
56042;BME280;48756;41.374;2.066;2022-10-10T00:45:49;101141.94;;;20.46;96.25
56042;BME280;48756;41.374;2.066;2022-10-10T00:48:19;101129.84;;;20.40;96.15
56042;BME280;48756;41.374;2.066;2022-10-10T00:53:17;101126.47;;;20.35;95.06
56042;BME280;48756;41.374;2.066;2022-10-10T00:55:44;101129.84;;;20.40;95.35
56042;BME280;48756;41.374;2.066;2022-10-10T00:58:10;101137.47;;;20.26;95.26
56042;BME280;48756;41.374;2.066;2022-10-10T01:00:36;101137.03;;;20.16;96.16
56042;BME280;48756;41.374;2.066;2022-10-10T01:03:02;101132.09;;;20.07;96.98
56042;BME280;48756;41.374;2.066;2022-10-10T01:05:27;101137.03;;;20.16;96.58
56042;BME280;48756;41.374;2.066;2022-10-10T01:07:53;101136.09;;;20.17;95.82
56042;BME280;48756;41.374;2.066;2022-10-10T01:10:19;101139.53;;;20.19;96.46
56042;BME280;48756;41.374;2.066;2022-10-10T01:18:23;101133.03;;;20.06;97.02
56042;BME280;48756;41.374;2.066;2022-10-10T01:21:13;101135.22;;;19.97;98.97
56042;BME280;48756;41.374;2.066;2022-10-10T01:29:09;101125.28;;;20.02;98.24
56042;BME280;48756;41.374;2.066;2022-10-10T01:31:38;101130.66;;;20.00;98.92
56042;BME280;48756;41.374;2.066;2022-10-10T01:34:11;101127.94;;;20.02;98.35
56042;BME280;48756;41.374;2.066;2022-10-10T01:36:47;101118.22;;;20.02;97.94
56042;BME280;48756;41.374;2.066;2022-10-10T01:39:23;101122.06;;;19.95;98.00
56042;BME280;48756;41.374;2.066;2022-10-10T01:44:45;101128.69;;;19.83;99.07
56042;BME280;48756;41.374;2.066;2022-10-10T01:47:11;101124.28;;;19.84;98.90
56042;BME280;48756;41.374;2.066;2022-10-10T01:49:37;101121.16;;;19.74;100.00
56042;BME280;48756;41.374;2.066;2022-10-10T01:52:14;101112.44;;;19.72;99.64
56042;BME280;48756;41.374;2.066;2022-10-10T01:54:51;101115.94;;;19.73;100.00
56042;BME280;48756;41.374;2.066;2022-10-10T02:02:35;101108.44;;;20.04;99.60
56042;BME280;48756;41.374;2.066;2022-10-10T02:05:08;101106.13;;;19.97;99.13
56042;BME280;48756;41.374;2.066;2022-10-10T02:10:05;101109.88;;;20.11;98.95
56042;BME280;48756;41.374;2.066;2022-10-10T02:12:31;101104.41;;;20.16;98.75
56042;BME280;48756;41.374;2.066;2022-10-10T02:14:59;101106.84;;;20.21;99.28
56042;BME280;48756;41.374;2.066;2022-10-10T02:17:26;101108.84;;;20.15;98.77
56042;BME280;48756;41.374;2.066;2022-10-10T02:19:53;101104.25;;;19.99;99.95
56042;BME280;48756;41.374;2.066;2022-10-10T02:22:20;101106.06;;;19.98;99.75
56042;BME280;48756;41.374;2.066;2022-10-10T02:24:47;101103.91;;;19.86;100.00
56042;BME280;48756;41.374;2.066;2022-10-10T02:27:18;101096.34;;;19.99;99.36
56042;BME280;48756;41.374;2.066;2022-10-10T02:29:45;101097.06;;;20.02;98.92
56042;BME280;48756;41.374;2.066;2022-10-10T02:32:16;101096.00;;;20.06;99.02
56042;BME280;48756;41.374;2.066;2022-10-10T02:34:45;101093.06;;;20.12;100.00
56042;BME280;48756;41.374;2.066;2022-10-10T02:37:13;101093.28;;;20.08;97.92
56042;BME280;48756;41.374;2.066;2022-10-10T02:39:41;101091.81;;;19.80;99.42
56042;BME280;48756;41.374;2.066;2022-10-10T02:42:07;101092.38;;;19.67;100.00
56042;BME280;48756;41.374;2.066;2022-10-10T02:44:37;101085.25;;;19.69;100.00
56042;BME280;48756;41.374;2.066;2022-10-10T02:47:03;101085.69;;;19.58;100.00
56042;BME280;48756;41.374;2.066;2022-10-10T02:49:29;101088.34;;;19.58;100.00
56042;BME280;48756;41.374;2.066;2022-10-10T02:51:55;101094.34;;;19.62;100.00
56042;BME280;48756;41.374;2.066;2022-10-10T02:54:20;101094.94;;;19.68;100.00
56042;BME280;48756;41.374;2.066;2022-10-10T02:56:45;101086.06;;;19.71;100.00
56042;BME280;48756;41.374;2.066;2022-10-10T02:59:11;101083.78;;;19.62;100.00
56042;BME280;48756;41.374;2.066;2022-10-10T03:01:36;101093.91;;;19.50;100.00
56042;BME280;48756;41.374;2.066;2022-10-10T03:04:01;101088.88;;;19.66;100.00
56042;BME280;48756;41.374;2.066;2022-10-10T03:06:27;101086.75;;;19.54;100.00
56042;BME280;48756;41.374;2.066;2022-10-10T03:08:52;101097.53;;;19.48;100.00
56042;BME280;48756;41.374;2.066;2022-10-10T03:11:18;101087.41;;;19.59;100.00
56042;BME280;48756;41.374;2.066;2022-10-10T03:13:44;101084.28;;;19.71;100.00
56042;BME280;48756;41.374;2.066;2022-10-10T03:16:09;101085.13;;;19.72;100.00
56042;BME280;48756;41.374;2.066;2022-10-10T03:18:35;101080.25;;;19.39;100.00
56042;BME280;48756;41.374;2.066;2022-10-10T03:21:00;101092.13;;;19.29;100.00
56042;BME280;48756;41.374;2.066;2022-10-10T03:23:26;101088.19;;;19.39;100.00
56042;BME280;48756;41.374;2.066;2022-10-10T03:25:51;101083.94;;;19.35;100.00
56042;BME280;48756;41.374;2.066;2022-10-10T03:28:16;101086.22;;;19.44;100.00
56042;BME280;48756;41.374;2.066;2022-10-10T03:30:42;101087.66;;;19.53;100.00
56042;BME280;48756;41.374;2.066;2022-10-10T03:33:07;101096.41;;;19.55;100.00
56042;BME280;48756;41.374;2.066;2022-10-10T03:35:33;101095.41;;;19.57;100.00
56042;BME280;48756;41.374;2.066;2022-10-10T03:37:58;101090.00;;;19.61;100.00
56042;BME280;48756;41.374;2.066;2022-10-10T03:40:24;101090.91;;;19.60;100.00
56042;BME280;48756;41.374;2.066;2022-10-10T03:42:50;101079.34;;;19.62;100.00
56042;BME280;48756;41.374;2.066;2022-10-10T03:45:15;101090.06;;;19.59;100.00
56042;BME280;48756;41.374;2.066;2022-10-10T03:47:41;101095.47;;;19.56;100.00
56042;BME280;48756;41.374;2.066;2022-10-10T03:50:09;101093.19;;;19.47;100.00
56042;BME280;48756;41.374;2.066;2022-10-10T03:52:34;101090.34;;;19.51;100.00
56042;BME280;48756;41.374;2.066;2022-10-10T03:55:00;101084.78;;;19.59;100.00
56042;BME280;48756;41.374;2.066;2022-10-10T03:57:25;101082.06;;;19.61;100.00
56042;BME280;48756;41.374;2.066;2022-10-10T03:59:51;101081.34;;;19.57;100.00
56042;BME280;48756;41.374;2.066;2022-10-10T04:02:16;101086.13;;;19.47;100.00
56042;BME280;48756;41.374;2.066;2022-10-10T04:04:41;101075.34;;;19.52;100.00
56042;BME280;48756;41.374;2.066;2022-10-10T04:07:07;101089.69;;;19.46;100.00
56042;BME280;48756;41.374;2.066;2022-10-10T04:09:32;101085.06;;;19.30;100.00
56042;BME280;48756;41.374;2.066;2022-10-10T04:12:01;101086.84;;;19.29;100.00
56042;BME280;48756;41.374;2.066;2022-10-10T04:14:26;101089.44;;;19.31;100.00
56042;BME280;48756;41.374;2.066;2022-10-10T04:16:52;101095.00;;;19.23;100.00
56042;BME280;48756;41.374;2.066;2022-10-10T04:19:17;101104.75;;;18.99;100.00
56042;BME280;48756;41.374;2.066;2022-10-10T04:21:43;101098.19;;;19.09;100.00
56042;BME280;48756;41.374;2.066;2022-10-10T04:24:08;101099.66;;;19.16;100.00
56042;BME280;48756;41.374;2.066;2022-10-10T04:26:34;101106.28;;;19.28;100.00
56042;BME280;48756;41.374;2.066;2022-10-10T04:28:59;101107.75;;;19.35;100.00
56042;BME280;48756;41.374;2.066;2022-10-10T04:31:25;101113.56;;;19.43;100.00
56042;BME280;48756;41.374;2.066;2022-10-10T04:33:50;101117.06;;;19.22;100.00
56042;BME280;48756;41.374;2.066;2022-10-10T04:36:15;101110.97;;;19.20;100.00
56042;BME280;48756;41.374;2.066;2022-10-10T04:38:41;101107.72;;;19.13;100.00
56042;BME280;48756;41.374;2.066;2022-10-10T04:41:07;101111.09;;;19.17;100.00
56042;BME280;48756;41.374;2.066;2022-10-10T04:43:32;101108.84;;;19.30;100.00
56042;BME280;48756;41.374;2.066;2022-10-10T04:45:58;101108.91;;;19.28;100.00
56042;BME280;48756;41.374;2.066;2022-10-10T04:48:23;101113.09;;;19.34;100.00
56042;BME280;48756;41.374;2.066;2022-10-10T04:50:55;101103.84;;;19.44;100.00
56042;BME280;48756;41.374;2.066;2022-10-10T04:53:21;101113.22;;;19.52;100.00
56042;BME280;48756;41.374;2.066;2022-10-10T04:55:47;101105.06;;;19.58;100.00
56042;BME280;48756;41.374;2.066;2022-10-10T04:58:12;101099.91;;;19.55;100.00
56042;BME280;48756;41.374;2.066;2022-10-10T05:00:38;101110.28;;;19.60;100.00
56042;BME280;48756;41.374;2.066;2022-10-10T05:03:04;101095.22;;;19.62;100.00
56042;BME280;48756;41.374;2.066;2022-10-10T05:05:29;101098.78;;;19.61;100.00
56042;BME280;48756;41.374;2.066;2022-10-10T05:07:54;101086.50;;;19.60;100.00
56042;BME280;48756;41.374;2.066;2022-10-10T05:10:20;101091.72;;;19.62;100.00
56042;BME280;48756;41.374;2.066;2022-10-10T05:12:45;101089.13;;;19.60;100.00
56042;BME280;48756;41.374;2.066;2022-10-10T05:15:10;101093.69;;;19.56;100.00
56042;BME280;48756;41.374;2.066;2022-10-10T05:17:36;101087.34;;;19.61;100.00
56042;BME280;48756;41.374;2.066;2022-10-10T05:20:01;101090.84;;;19.61;100.00
56042;BME280;48756;41.374;2.066;2022-10-10T05:22:27;101096.50;;;19.52;100.00
56042;BME280;48756;41.374;2.066;2022-10-10T05:24:52;101098.00;;;19.14;100.00
56042;BME280;48756;41.374;2.066;2022-10-10T05:27:18;101097.41;;;19.07;100.00
56042;BME280;48756;41.374;2.066;2022-10-10T05:29:43;101101.25;;;18.98;100.00
56042;BME280;48756;41.374;2.066;2022-10-10T05:32:08;101108.75;;;19.09;100.00
56042;BME280;48756;41.374;2.066;2022-10-10T05:34:34;101107.16;;;19.05;100.00
56042;BME280;48756;41.374;2.066;2022-10-10T05:36:59;101108.44;;;19.17;100.00
56042;BME280;48756;41.374;2.066;2022-10-10T05:39:24;101121.25;;;19.27;100.00
56042;BME280;48756;41.374;2.066;2022-10-10T05:41:50;101122.06;;;19.30;100.00
56042;BME280;48756;41.374;2.066;2022-10-10T05:44:15;101127.28;;;19.31;100.00
56042;BME280;48756;41.374;2.066;2022-10-10T05:46:40;101135.47;;;19.25;100.00
56042;BME280;48756;41.374;2.066;2022-10-10T05:49:05;101125.44;;;19.33;100.00
56042;BME280;48756;41.374;2.066;2022-10-10T05:51:31;101128.13;;;19.32;100.00
56042;BME280;48756;41.374;2.066;2022-10-10T05:53:56;101132.69;;;19.28;100.00
56042;BME280;48756;41.374;2.066;2022-10-10T05:56:22;101129.06;;;19.31;100.00
56042;BME280;48756;41.374;2.066;2022-10-10T05:58:47;101127.41;;;19.28;100.00
56042;BME280;48756;41.374;2.066;2022-10-10T06:01:15;101127.28;;;19.31;100.00
56042;BME280;48756;41.374;2.066;2022-10-10T06:03:40;101128.88;;;19.35;100.00
56042;BME280;48756;41.374;2.066;2022-10-10T06:06:05;101133.56;;;19.28;100.00
56042;BME280;48756;41.374;2.066;2022-10-10T06:08:31;101132.16;;;19.18;100.00
56042;BME280;48756;41.374;2.066;2022-10-10T06:11:00;101142.06;;;19.13;100.00
56042;BME280;48756;41.374;2.066;2022-10-10T06:13:25;101142.63;;;18.98;100.00
56042;BME280;48756;41.374;2.066;2022-10-10T06:15:51;101147.16;;;18.94;100.00
56042;BME280;48756;41.374;2.066;2022-10-10T06:18:16;101145.00;;;19.06;100.00
56042;BME280;48756;41.374;2.066;2022-10-10T06:20:41;101145.31;;;19.20;100.00
56042;BME280;48756;41.374;2.066;2022-10-10T06:23:07;101147.56;;;19.31;100.00
56042;BME280;48756;41.374;2.066;2022-10-10T06:25:33;101147.19;;;19.40;100.00
56042;BME280;48756;41.374;2.066;2022-10-10T06:27:59;101147.84;;;19.23;100.00
56042;BME280;48756;41.374;2.066;2022-10-10T06:30:24;101148.66;;;19.25;100.00
56042;BME280;48756;41.374;2.066;2022-10-10T06:32:49;101139.31;;;19.38;100.00
56042;BME280;48756;41.374;2.066;2022-10-10T06:35:15;101141.56;;;19.49;100.00
56042;BME280;48756;41.374;2.066;2022-10-10T06:37:40;101145.56;;;19.59;100.00
56042;BME280;48756;41.374;2.066;2022-10-10T06:40:06;101145.69;;;19.56;100.00
56042;BME280;48756;41.374;2.066;2022-10-10T06:42:32;101144.66;;;19.60;100.00
56042;BME280;48756;41.374;2.066;2022-10-10T06:44:57;101150.38;;;19.71;100.00
56042;BME280;48756;41.374;2.066;2022-10-10T06:47:22;101151.50;;;19.86;100.00
56042;BME280;48756;41.374;2.066;2022-10-10T06:49:48;101150.31;;;19.73;100.00
56042;BME280;48756;41.374;2.066;2022-10-10T06:52:16;101160.47;;;19.38;100.00
56042;BME280;48756;41.374;2.066;2022-10-10T06:54:41;101158.94;;;19.33;100.00
56042;BME280;48756;41.374;2.066;2022-10-10T06:57:07;101173.91;;;19.55;100.00
56042;BME280;48756;41.374;2.066;2022-10-10T06:59:32;101173.91;;;19.55;100.00
56042;BME280;48756;41.374;2.066;2022-10-10T07:01:57;101171.81;;;19.64;100.00
56042;BME280;48756;41.374;2.066;2022-10-10T07:04:23;101177.19;;;19.39;100.00
56042;BME280;48756;41.374;2.066;2022-10-10T07:06:48;101179.81;;;19.62;100.00
56042;BME280;48756;41.374;2.066;2022-10-10T07:09:13;101169.84;;;19.69;100.00
56042;BME280;48756;41.374;2.066;2022-10-10T07:11:39;101177.22;;;19.82;99.70
56042;BME280;48756;41.374;2.066;2022-10-10T07:14:09;101181.97;;;19.74;99.59
56042;BME280;48756;41.374;2.066;2022-10-10T07:16:34;101183.50;;;20.02;97.83
56042;BME280;48756;41.374;2.066;2022-10-10T07:19:00;101190.69;;;19.98;97.72
56042;BME280;48756;41.374;2.066;2022-10-10T07:21:25;101196.25;;;20.12;97.40
56042;BME280;48756;41.374;2.066;2022-10-10T07:23:51;101196.47;;;20.28;95.17
56042;BME280;48756;41.374;2.066;2022-10-10T07:26:19;101207.69;;;20.13;95.44
56042;BME280;48756;41.374;2.066;2022-10-10T07:28:46;101198.94;;;20.33;92.71
56042;BME280;48756;41.374;2.066;2022-10-10T07:31:12;101199.63;;;20.38;92.82
56042;BME280;48756;41.374;2.066;2022-10-10T07:33:41;101201.25;;;20.62;91.53
56042;BME280;48756;41.374;2.066;2022-10-10T07:36:07;101210.13;;;20.19;91.88
56042;BME280;48756;41.374;2.066;2022-10-10T07:38:33;101206.59;;;20.40;91.87
56042;BME280;48756;41.374;2.066;2022-10-10T07:40:59;101212.16;;;20.33;91.87
56042;BME280;48756;41.374;2.066;2022-10-10T07:43:24;101208.63;;;20.54;91.00
56042;BME280;48756;41.374;2.066;2022-10-10T07:45:50;101217.28;;;20.78;88.90
56042;BME280;48756;41.374;2.066;2022-10-10T07:48:15;101222.41;;;20.62;89.82
56042;BME280;48756;41.374;2.066;2022-10-10T07:50:42;101220.88;;;20.57;89.08
56042;BME280;48756;41.374;2.066;2022-10-10T07:53:08;101225.94;;;20.63;89.54
56042;BME280;48756;41.374;2.066;2022-10-10T07:55:33;101223.19;;;20.44;89.53
56042;BME280;48756;41.374;2.066;2022-10-10T07:57:59;101220.91;;;20.35;89.55
56042;BME280;48756;41.374;2.066;2022-10-10T08:00:27;101218.03;;;20.41;89.67
56042;BME280;48756;41.374;2.066;2022-10-10T08:02:52;101221.16;;;20.71;87.79
56042;BME280;48756;41.374;2.066;2022-10-10T08:05:18;101233.13;;;20.79;87.72
56042;BME280;48756;41.374;2.066;2022-10-10T08:07:43;101231.16;;;21.03;86.65
56042;BME280;48756;41.374;2.066;2022-10-10T08:10:08;101233.16;;;20.98;87.20
56042;BME280;48756;41.374;2.066;2022-10-10T08:12:34;101244.69;;;20.97;88.48
56042;BME280;48756;41.374;2.066;2022-10-10T08:15:00;101240.91;;;21.03;88.30
56042;BME280;48756;41.374;2.066;2022-10-10T08:17:25;101243.59;;;21.22;86.29
56042;BME280;48756;41.374;2.066;2022-10-10T08:19:50;101244.41;;;21.24;86.17
56042;BME280;48756;41.374;2.066;2022-10-10T08:22:16;101246.28;;;21.40;85.22
56042;BME280;48756;41.374;2.066;2022-10-10T08:24:41;101244.66;;;21.76;83.62
56042;BME280;48756;41.374;2.066;2022-10-10T08:27:07;101244.47;;;21.97;81.63
56042;BME280;48756;41.374;2.066;2022-10-10T08:29:32;101247.72;;;21.85;82.03
56042;BME280;48756;41.374;2.066;2022-10-10T08:31:57;101242.53;;;22.01;82.50
56042;BME280;48756;41.374;2.066;2022-10-10T08:34:23;101250.84;;;21.93;83.77
56042;BME280;48756;41.374;2.066;2022-10-10T08:36:49;101253.81;;;21.68;84.45
56042;BME280;48756;41.374;2.066;2022-10-10T08:39:15;101249.38;;;21.69;84.14
56042;BME280;48756;41.374;2.066;2022-10-10T08:44:11;101250.38;;;21.66;86.26
56042;BME280;48756;41.374;2.066;2022-10-10T08:46:40;101244.25;;;22.02;83.88
56042;BME280;48756;41.374;2.066;2022-10-10T08:49:12;101244.03;;;21.88;84.33
56042;BME280;48756;41.374;2.066;2022-10-10T08:51:40;101244.91;;;22.07;85.47
56042;BME280;48756;41.374;2.066;2022-10-10T08:54:07;101243.72;;;22.13;84.83
56042;BME280;48756;41.374;2.066;2022-10-10T08:56:35;101249.63;;;22.19;84.94
56042;BME280;48756;41.374;2.066;2022-10-10T08:59:04;101246.56;;;22.27;83.35
56042;BME280;48756;41.374;2.066;2022-10-10T09:01:35;101245.94;;;22.39;84.42
56042;BME280;48756;41.374;2.066;2022-10-10T09:04:02;101250.19;;;22.43;82.74
56042;BME280;48756;41.374;2.066;2022-10-10T09:17:01;101240.88;;;22.52;80.93
56042;BME280;48756;41.374;2.066;2022-10-10T09:22:02;101246.41;;;22.99;78.41
56042;BME280;48756;41.374;2.066;2022-10-10T09:24:33;101244.38;;;23.04;77.84
56042;BME280;48756;41.374;2.066;2022-10-10T09:27:02;101245.88;;;23.26;76.61
56042;BME280;48756;41.374;2.066;2022-10-10T09:32:02;101250.75;;;23.66;72.43
56042;BME280;48756;41.374;2.066;2022-10-10T09:36:54;101256.59;;;23.89;70.64
56042;BME280;48756;41.374;2.066;2022-10-10T09:41:59;101252.84;;;23.77;72.62
56042;BME280;48756;41.374;2.066;2022-10-10T09:44:25;101251.19;;;23.90;72.55
56042;BME280;48756;41.374;2.066;2022-10-10T09:46:53;101255.31;;;23.80;73.36
56042;BME280;48756;41.374;2.066;2022-10-10T09:49:19;101248.34;;;23.93;72.02
56042;BME280;48756;41.374;2.066;2022-10-10T09:51:45;101252.56;;;23.66;72.18
56042;BME280;48756;41.374;2.066;2022-10-10T09:54:11;101243.81;;;23.79;71.81
56042;BME280;48756;41.374;2.066;2022-10-10T09:56:42;101249.28;;;24.08;71.14
56042;BME280;48756;41.374;2.066;2022-10-10T10:02:00;101253.41;;;23.98;73.77
56042;BME280;48756;41.374;2.066;2022-10-10T10:04:26;101248.50;;;24.06;75.13
56042;BME280;48756;41.374;2.066;2022-10-10T10:07:02;101259.34;;;23.87;75.76
56042;BME280;48756;41.374;2.066;2022-10-10T10:09:31;101262.16;;;23.68;76.99
56042;BME280;48756;41.374;2.066;2022-10-10T10:11:57;101260.03;;;23.75;77.60
56042;BME280;48756;41.374;2.066;2022-10-10T10:14:30;101254.78;;;24.05;76.09
56042;BME280;48756;41.374;2.066;2022-10-10T10:17:15;101256.50;;;24.06;76.22
56042;BME280;48756;41.374;2.066;2022-10-10T10:19:43;101254.25;;;24.30;76.34
56042;BME280;48756;41.374;2.066;2022-10-10T10:24:46;101263.72;;;23.23;79.35
56042;BME280;48756;41.374;2.066;2022-10-10T10:27:16;101272.53;;;23.24;78.72
56042;BME280;48756;41.374;2.066;2022-10-10T10:29:46;101265.22;;;23.45;79.46
56042;BME280;48756;41.374;2.066;2022-10-10T10:39:50;101269.81;;;23.59;78.77
56042;BME280;48756;41.374;2.066;2022-10-10T10:45:16;101270.31;;;23.97;77.41
56042;BME280;48756;41.374;2.066;2022-10-10T10:50:22;101265.84;;;24.29;77.67
56042;BME280;48756;41.374;2.066;2022-10-10T10:55:28;101266.00;;;24.26;75.12
56042;BME280;48756;41.374;2.066;2022-10-10T10:58:15;101262.91;;;24.63;73.78
56042;BME280;48756;41.374;2.066;2022-10-10T11:00:53;101267.44;;;24.91;72.86
56042;BME280;48756;41.374;2.066;2022-10-10T11:05:49;101266.06;;;24.70;73.24
56042;BME280;48756;41.374;2.066;2022-10-10T11:11:07;101275.00;;;24.39;75.15
56042;BME280;48756;41.374;2.066;2022-10-10T11:13:55;101272.44;;;24.37;74.95
56042;BME280;48756;41.374;2.066;2022-10-10T11:16:26;101278.41;;;23.79;77.67
56042;BME280;48756;41.374;2.066;2022-10-10T11:21:39;101275.22;;;23.89;78.95
56042;BME280;48756;41.374;2.066;2022-10-10T11:24:11;101271.25;;;23.96;79.00
56042;BME280;48756;41.374;2.066;2022-10-10T11:26:41;101273.50;;;23.88;76.87
56042;BME280;48756;41.374;2.066;2022-10-10T11:29:10;101283.91;;;23.76;78.15
56042;BME280;48756;41.374;2.066;2022-10-10T11:31:40;101269.47;;;23.65;77.59
56042;BME280;48756;41.374;2.066;2022-10-10T11:34:09;101275.81;;;23.62;77.46
56042;BME280;48756;41.374;2.066;2022-10-10T11:36:38;101270.44;;;23.79;77.16
56042;BME280;48756;41.374;2.066;2022-10-10T11:39:11;101272.56;;;23.57;77.67
56042;BME280;48756;41.374;2.066;2022-10-10T11:41:40;101264.50;;;23.59;77.76
56042;BME280;48756;41.374;2.066;2022-10-10T11:44:09;101275.94;;;23.76;76.91
56042;BME280;48756;41.374;2.066;2022-10-10T11:54:26;101260.88;;;23.91;75.49
56042;BME280;48756;41.374;2.066;2022-10-10T11:56:52;101256.16;;;23.96;75.42
56042;BME280;48756;41.374;2.066;2022-10-10T11:59:26;101258.13;;;24.08;74.41
56042;BME280;48756;41.374;2.066;2022-10-10T12:01:53;101255.25;;;24.27;74.59
56042;BME280;48756;41.374;2.066;2022-10-10T12:04:21;101243.00;;;24.09;76.17
56042;BME280;48756;41.374;2.066;2022-10-10T12:06:49;101244.63;;;24.11;76.13
56042;BME280;48756;41.374;2.066;2022-10-10T12:09:18;101241.28;;;24.24;75.30
56042;BME280;48756;41.374;2.066;2022-10-10T12:14:18;101220.88;;;24.68;73.27
56042;BME280;48756;41.374;2.066;2022-10-10T12:16:45;101226.53;;;25.07;72.67
56042;BME280;48756;41.374;2.066;2022-10-10T12:19:15;101213.16;;;25.49;70.34
56042;BME280;48756;41.374;2.066;2022-10-10T12:21:55;101212.19;;;25.50;68.93
56042;BME280;48756;41.374;2.066;2022-10-10T12:24:21;101215.63;;;25.52;69.47
56042;BME280;48756;41.374;2.066;2022-10-10T12:42:36;101198.63;;;24.39;73.36
56042;BME280;48756;41.374;2.066;2022-10-10T12:45:02;101201.13;;;24.57;73.55
56042;BME280;48756;41.374;2.066;2022-10-10T12:47:41;101201.50;;;24.51;71.46
56042;BME280;48756;41.374;2.066;2022-10-10T12:50:27;101210.31;;;24.67;72.56
56042;BME280;48756;41.374;2.066;2022-10-10T12:55:22;101208.50;;;24.82;72.17
56042;BME280;48756;41.374;2.066;2022-10-10T12:57:49;101197.00;;;24.95;70.65
56042;BME280;48756;41.374;2.066;2022-10-10T13:00:17;101198.81;;;25.09;68.79
56042;BME280;48756;41.374;2.066;2022-10-10T13:02:45;101200.19;;;24.86;70.97
56042;BME280;48756;41.374;2.066;2022-10-10T13:05:11;101204.69;;;24.71;70.93
56042;BME280;48756;41.374;2.066;2022-10-10T13:07:39;101197.41;;;25.18;71.50
56042;BME280;48756;41.374;2.066;2022-10-10T13:10:18;101196.63;;;25.16;69.17
56042;BME280;48756;41.374;2.066;2022-10-10T13:12:43;101201.09;;;25.01;69.44
56042;BME280;48756;41.374;2.066;2022-10-10T13:15:16;101202.34;;;25.10;70.67
56042;BME280;48756;41.374;2.066;2022-10-10T13:17:43;101191.66;;;24.95;70.51
56042;BME280;48756;41.374;2.066;2022-10-10T13:20:24;101187.63;;;24.88;69.46
56042;BME280;48756;41.374;2.066;2022-10-10T13:22:50;101187.06;;;24.83;70.85
56042;BME280;48756;41.374;2.066;2022-10-10T13:25:15;101191.84;;;24.92;70.15
56042;BME280;48756;41.374;2.066;2022-10-10T13:27:41;101189.34;;;24.89;70.37
56042;BME280;48756;41.374;2.066;2022-10-10T13:30:14;101191.91;;;24.48;72.96
56042;BME280;48756;41.374;2.066;2022-10-10T13:32:42;101188.63;;;24.13;72.57
56042;BME280;48756;41.374;2.066;2022-10-10T13:35:14;101179.81;;;24.57;72.40
56042;BME280;48756;41.374;2.066;2022-10-10T13:37:40;101190.81;;;24.36;73.48
56042;BME280;48756;41.374;2.066;2022-10-10T13:40:13;101183.78;;;24.35;73.45
56042;BME280;48756;41.374;2.066;2022-10-10T13:42:39;101181.59;;;24.12;74.25
56042;BME280;48756;41.374;2.066;2022-10-10T13:47:50;101182.03;;;24.04;74.82
56042;BME280;48756;41.374;2.066;2022-10-10T13:50:21;101180.44;;;24.16;73.66
56042;BME280;48756;41.374;2.066;2022-10-10T13:52:46;101183.78;;;23.74;77.89
56042;BME280;48756;41.374;2.066;2022-10-10T13:55:22;101181.47;;;23.83;76.84
56042;BME280;48756;41.374;2.066;2022-10-10T13:57:50;101182.06;;;24.19;74.98
56042;BME280;48756;41.374;2.066;2022-10-10T14:00:17;101187.09;;;24.09;75.46
56042;BME280;48756;41.374;2.066;2022-10-10T14:02:43;101180.44;;;24.16;75.10
56042;BME280;48756;41.374;2.066;2022-10-10T14:05:25;101185.03;;;23.98;76.00
56042;BME280;48756;41.374;2.066;2022-10-10T14:07:52;101189.25;;;24.02;77.03
56042;BME280;48756;41.374;2.066;2022-10-10T14:10:20;101185.50;;;23.75;78.10
56042;BME280;48756;41.374;2.066;2022-10-10T14:12:57;101191.00;;;23.72;77.26
56042;BME280;48756;41.374;2.066;2022-10-10T14:17:54;101184.66;;;23.74;76.18
56042;BME280;48756;41.374;2.066;2022-10-10T14:20:20;101195.31;;;23.59;77.84
56042;BME280;48756;41.374;2.066;2022-10-10T14:22:45;101187.59;;;23.70;77.77
56042;BME280;48756;41.374;2.066;2022-10-10T14:25:10;101198.00;;;23.59;78.29
56042;BME280;48756;41.374;2.066;2022-10-10T14:27:36;101185.78;;;23.86;76.40
56042;BME280;48756;41.374;2.066;2022-10-10T14:30:01;101188.59;;;23.83;76.26
56042;BME280;48756;41.374;2.066;2022-10-10T14:32:27;101202.28;;;23.77;76.79
56042;BME280;48756;41.374;2.066;2022-10-10T14:34:52;101197.72;;;23.63;78.65
56042;BME280;48756;41.374;2.066;2022-10-10T14:37:27;101197.38;;;23.69;77.03